Time;durP1;ratioP1;P1;durP2;ratioP2;P2;SDS_P1;SDS_P2;PMS_P1;PMS_P2;Temp;Humidity;BMP_temperature;BMP_pressure;BME280_temperature;BME280_humidity;BME280_pressure;Samples;Min_cycle;Max_cycle;Signal;HPM_P1;HPM_P2
2021/11/30 00:00:00;;;;;;;2.87;2.53;;;;;;;1.30;100.00;97897.53;5073071;28;20773;-55
2021/11/30 00:02:26;;;;;;;3.87;2.70;;;;;;;1.28;100.00;97892.47;5069392;28;20505;-57
2021/11/30 00:04:52;;;;;;;4.77;1.83;;;;;;;1.35;100.00;97896.72;5067730;28;20032;-59
2021/11/30 00:07:18;;;;;;;4.33;2.80;;;;;;;1.36;100.00;97897.53;5069490;28;20049;-58
2021/11/30 00:12:15;;;;;;;2.63;2.23;;;;;;;1.41;100.00;97911.03;5069358;28;20041;-59
2021/11/30 00:14:42;;;;;;;2.93;2.47;;;;;;;1.38;100.00;97900.94;5066339;28;20067;-57
2021/11/30 00:17:09;;;;;;;3.90;2.80;;;;;;;1.37;100.00;97910.19;5070501;28;20435;-57
2021/11/30 00:19:35;;;;;;;5.50;2.43;;;;;;;1.37;100.00;97896.72;5072725;28;20039;-58
2021/11/30 00:22:00;;;;;;;4.73;2.00;;;;;;;1.31;100.00;97912.69;5067900;28;20131;-58
2021/11/30 00:24:30;;;;;;;2.33;2.17;;;;;;;1.33;100.00;97907.63;5066963;28;20119;-59
2021/11/30 00:26:57;;;;;;;2.70;2.40;;;;;;;1.40;100.00;97909.34;5071511;28;20051;-58
2021/11/30 00:29:23;;;;;;;2.10;1.90;;;;;;;1.39;100.00;97912.72;5071367;28;20072;-57
2021/11/30 00:31:49;;;;;;;4.03;3.00;;;;;;;1.37;100.00;97925.34;5068344;28;20080;-58
2021/11/30 00:34:14;;;;;;;3.80;2.57;;;;;;;1.41;100.00;97930.41;5065808;28;20029;-57
2021/11/30 00:36:41;;;;;;;2.47;2.13;;;;;;;1.39;100.00;97920.31;5072382;28;20402;-56
2021/11/30 00:39:06;;;;;;;2.60;2.40;;;;;;;1.43;100.00;97924.53;5072239;28;20028;-57
2021/11/30 00:41:33;;;;;;;4.70;3.03;;;;;;;1.35;100.00;97927.03;5065438;28;20048;-59
2021/11/30 00:43:58;;;;;;;4.73;2.93;;;;;;;1.41;100.00;97933.78;5068167;28;20069;-58
2021/11/30 00:46:35;;;;;;;2.97;2.60;;;;;;;1.33;100.00;97933.72;5070231;28;20040;-57
2021/11/30 00:49:03;;;;;;;3.83;2.73;;;;;;;1.41;100.00;97950.59;5069604;28;20545;-59
2021/11/30 00:51:30;;;;;;;3.43;3.07;;;;;;;1.42;100.00;97945.56;5065964;28;20358;-58
2021/11/30 00:53:56;;;;;;;3.63;2.60;;;;;;;1.43;100.00;97959.03;5069159;28;20109;-59
2021/11/30 00:56:22;;;;;;;8.13;3.07;;;;;;;1.44;100.00;97953.16;5070731;28;20075;-57
2021/11/30 00:58:48;;;;;;;3.83;2.90;;;;;;;1.41;100.00;97966.59;5069753;28;20063;-59
2021/11/30 01:01:13;;;;;;;4.10;3.60;;;;;;;1.35;100.00;97966.56;5066076;28;20052;-61
2021/11/30 01:03:40;;;;;;;3.50;2.67;;;;;;;1.40;100.00;97953.97;5066523;28;20058;-57
2021/11/30 01:06:07;;;;;;;3.23;2.90;;;;;;;1.39;100.00;97953.13;5066377;28;20098;-55
2021/11/30 01:08:33;;;;;;;2.30;2.10;;;;;;;1.36;100.00;97955.63;5067713;28;20219;-59
2021/11/30 01:10:59;;;;;;;2.47;2.00;;;;;;;1.31;100.00;97954.78;5066113;28;20054;-58
2021/11/30 01:13:25;;;;;;;3.13;2.80;;;;;;;1.34;100.00;97968.25;5069046;28;20064;-58
2021/11/30 01:15:50;;;;;;;2.87;2.43;;;;;;;1.31;100.00;97963.19;5051830;28;20064;-58
2021/11/30 01:18:17;;;;;;;3.47;2.60;;;;;;;1.31;100.00;97975.81;5068375;28;20426;-56
2021/11/30 01:20:43;;;;;;;3.20;2.57;;;;;;;1.30;100.00;97971.59;5067328;28;20048;-56
2021/11/30 01:23:09;;;;;;;3.17;2.53;;;;;;;1.31;100.00;97985.06;5071163;28;20039;-58
2021/11/30 01:25:35;;;;;;;3.27;2.97;;;;;;;1.22;100.00;97979.94;5069368;28;20040;-56
2021/11/30 01:28:02;;;;;;;3.97;2.23;;;;;;;1.27;100.00;97995.97;5043838;28;20564;-59
2021/11/30 01:30:28;;;;;;;3.70;2.67;;;;;;;1.24;100.00;97993.41;5065113;28;20127;-59
2021/11/30 01:32:53;;;;;;;3.93;2.50;;;;;;;1.24;100.00;97998.47;5069939;28;20115;-59
2021/11/30 01:35:19;;;;;;;2.90;2.70;;;;;;;1.23;100.00;97997.59;5070765;28;20048;-58
2021/11/30 01:37:46;;;;;;;2.20;2.00;;;;;;;1.28;100.00;98007.75;5067652;28;20033;-57
2021/11/30 01:40:15;;;;;;;2.90;2.70;;;;;;;1.28;100.00;97990.91;5065731;28;20033;-58
2021/11/30 01:42:46;;;;;;;2.67;2.43;;;;;;;1.25;100.00;98006.06;5068326;28;20032;-58
2021/11/30 01:50:28;;;;;;;2.60;2.30;;;;;;;1.35;100.00;98000.25;5067340;28;20032;-58
2021/11/30 01:52:53;;;;;;;3.20;2.90;;;;;;;1.41;100.00;98001.09;5071403;28;20039;-60
2021/11/30 01:55:19;;;;;;;2.63;2.33;;;;;;;1.33;100.00;98009.47;5069080;28;20071;-56
2021/11/30 01:57:44;;;;;;;2.77;2.30;;;;;;;1.31;100.00;98000.22;5066703;28;20394;-58
2021/11/30 02:00:10;;;;;;;2.50;2.13;;;;;;;1.33;100.00;97999.38;5067204;28;20037;-57
2021/11/30 02:02:36;;;;;;;2.50;2.20;;;;;;;1.34;100.00;98015.38;5071422;28;20484;-58
2021/11/30 02:05:02;;;;;;;5.53;2.90;;;;;;;1.28;100.00;98016.16;5068615;28;20040;-58
2021/11/30 02:07:28;;;;;;;3.47;3.17;;;;;;;1.29;100.00;98006.91;5067086;28;20155;-59
2021/11/30 02:09:53;;;;;;;2.40;2.20;;;;;;;1.22;100.00;98011.09;5067088;28;20123;-57
2021/11/30 02:12:19;;;;;;;3.07;2.07;;;;;;;1.28;100.00;98002.69;5070520;28;20036;-56
2021/11/30 02:14:46;;;;;;;2.50;2.27;;;;;;;1.22;100.00;98010.25;5065127;28;20124;-59
2021/11/30 02:17:13;;;;;;;3.10;2.73;;;;;;;1.28;100.00;98016.16;5066325;28;20051;-58
2021/11/30 02:19:49;;;;;;;3.77;2.77;;;;;;;1.25;100.00;98038.88;5068614;28;20036;-60
2021/11/30 02:22:15;;;;;;;3.33;3.03;;;;;;;1.22;100.00;98003.53;5067041;28;20033;-59
2021/11/30 02:24:42;;;;;;;4.37;3.30;;;;;;;1.22;100.00;98010.25;5053911;28;20485;-60
2021/11/30 02:27:08;;;;;;;3.80;3.10;;;;;;;1.14;100.00;98019.44;5074736;28;20037;-59
2021/11/30 02:29:33;;;;;;;3.53;3.17;;;;;;;1.14;100.00;98019.44;5071316;28;20056;-60
2021/11/30 02:32:00;;;;;;;4.53;3.13;;;;;;;1.19;100.00;98022.84;5070025;28;20049;-60
2021/11/30 02:34:26;;;;;;;4.80;3.17;;;;;;;1.08;100.00;98004.22;5071640;28;20045;-59
2021/11/30 02:36:53;;;;;;;3.63;2.50;;;;;;;1.21;100.00;98008.53;5074118;28;20061;-59
2021/11/30 02:39:24;;;;;;;3.13;2.83;;;;;;;1.27;100.00;98009.41;5070036;28;20182;-57
2021/11/30 02:41:52;;;;;;;4.00;2.70;;;;;;;1.23;100.00;98002.66;5066981;28;20866;-57
2021/11/30 02:44:21;;;;;;;3.30;2.60;;;;;;;1.19;100.00;98020.31;5069266;28;20051;-59
2021/11/30 02:46:50;;;;;;;6.40;3.50;;;;;;;1.13;100.00;98016.06;5074098;28;20090;-57
2021/11/30 02:49:20;;;;;;;3.20;2.80;;;;;;;1.21;100.00;98009.38;5071114;28;20045;-58
2021/11/30 02:51:50;;;;;;;4.30;3.90;;;;;;;1.30;100.00;98014.50;5070502;28;20466;-54
2021/11/30 02:54:18;;;;;;;2.60;2.40;;;;;;;1.31;100.00;98028.00;5074334;28;20037;-55
2021/11/30 02:56:53;;;;;;;2.43;2.23;;;;;;;1.26;100.00;98022.06;5073967;28;20452;-56
2021/11/30 02:59:19;;;;;;;2.92;2.40;;;;;;;1.23;100.00;98022.03;5067036;28;20051;-56
2021/11/30 03:01:53;;;;;;;2.73;2.40;;;;;;;1.39;100.00;98023.84;5069721;28;20033;-59
2021/11/30 03:04:19;;;;;;;5.05;2.72;;;;;;;1.31;100.00;98033.88;5071085;28;20363;-58
2021/11/30 03:06:44;;;;;;;2.40;2.20;;;;;;;1.27;100.00;98039.72;5072780;28;20047;-55
2021/11/30 03:09:10;;;;;;;2.40;2.20;;;;;;;1.47;100.00;98056.72;5067920;28;20024;-58
2021/11/30 03:11:35;;;;;;;2.83;2.40;;;;;;;1.46;100.00;98050.81;5070815;28;20040;-57
2021/11/30 03:14:01;;;;;;;3.00;2.43;;;;;;;1.45;100.00;98071.84;5072196;28;20581;-59
2021/11/30 03:16:27;;;;;;;2.23;2.03;;;;;;;1.44;100.00;98079.44;5068287;28;20044;-58
2021/11/30 03:18:53;;;;;;;3.10;2.50;;;;;;;1.45;100.00;98071.84;5067102;28;20075;-59
2021/11/30 03:21:18;;;;;;;4.03;2.77;;;;;;;1.48;100.00;98064.31;5071089;28;20052;-54
2021/11/30 03:23:44;;;;;;;2.73;2.43;;;;;;;1.47;100.00;98071.88;5072294;28;20036;-59
2021/11/30 03:26:10;;;;;;;2.47;2.27;;;;;;;1.47;100.00;98057.56;5071728;28;20055;-55
2021/11/30 03:28:36;;;;;;;2.97;2.70;;;;;;;1.45;100.00;98064.28;5068010;28;20029;-59
2021/11/30 03:31:05;;;;;;;4.10;2.17;;;;;;;1.36;100.00;98054.09;5071428;28;20036;-57
2021/11/30 03:36:15;;;;;;;3.83;2.10;;;;;;;1.53;100.00;98066.88;5069115;28;20147;-55
2021/11/30 03:38:40;;;;;;;3.23;2.30;;;;;;;1.51;100.00;98059.28;5067239;28;20111;-59
2021/11/30 03:41:07;;;;;;;2.70;1.70;;;;;;;1.54;100.00;98054.25;5070213;28;20060;-58
2021/11/30 03:43:33;;;;;;;2.77;2.57;;;;;;;1.52;100.00;98052.56;5072078;28;20432;-57
2021/11/30 03:45:59;;;;;;;2.70;2.40;;;;;;;1.49;100.00;98048.31;5066893;28;20045;-58
2021/11/30 03:48:24;;;;;;;5.03;4.63;;;;;;;1.55;100.00;98050.03;5067573;28;20090;-57
2021/11/30 03:50:49;;;;;;;2.67;2.40;;;;;;;1.55;100.00;98081.19;5070119;28;20119;-57
2021/11/30 03:53:15;;;;;;;2.77;2.57;;;;;;;1.63;100.00;98063.56;5044144;28;20047;-59
2021/11/30 03:55:40;;;;;;;2.57;2.30;;;;;;;1.58;100.00;98052.56;5065294;28;20080;-58
2021/11/30 03:58:06;;;;;;;3.67;2.40;;;;;;;1.57;100.00;98046.66;5067311;28;20111;-59
2021/11/30 04:00:31;;;;;;;3.53;2.40;;;;;;;1.55;100.00;98061.00;5069749;28;20036;-57
2021/11/30 04:02:58;;;;;;;3.17;2.40;;;;;;;1.53;100.00;98066.88;5072323;28;20379;-56
2021/11/30 04:05:23;;;;;;;3.80;2.53;;;;;;;1.50;100.00;98087.03;5065753;28;20040;-56
2021/11/30 04:07:49;;;;;;;3.03;2.37;;;;;;;1.57;100.00;98063.53;5068144;28;20110;-58
2021/11/30 04:10:14;;;;;;;2.50;2.23;;;;;;;1.58;100.00;98111.53;5069315;28;20063;-56
2021/11/30 04:12:40;;;;;;;2.43;2.23;;;;;;;1.64;95.90;98060.22;5072492;28;20417;-58
2021/11/30 04:15:06;;;;;;;2.47;1.80;;;;;;;1.68;95.34;98050.13;5065902;28;20060;-58
2021/11/30 04:17:33;;;;;;;3.93;2.50;;;;;;;1.72;94.06;98066.16;5068190;28;20091;-55
2021/11/30 04:19:58;;;;;;;3.37;2.27;;;;;;;1.70;91.66;98060.22;5069949;28;20043;-57
2021/11/30 04:22:24;;;;;;;2.27;1.97;;;;;;;1.56;93.88;98067.75;5069287;28;20124;-57
2021/11/30 04:24:50;;;;;;;2.33;1.50;;;;;;;1.53;92.62;98057.59;5066446;28;20485;-58
2021/11/30 04:27:15;;;;;;;5.60;2.27;;;;;;;1.53;92.33;98061.81;5067350;28;20090;-58
2021/11/30 04:29:42;;;;;;;2.33;2.03;;;;;;;1.53;91.97;98062.63;5070854;28;20025;-56
2021/11/30 04:32:09;;;;;;;2.13;1.70;;;;;;;1.53;92.15;98067.69;5068711;28;20055;-58
2021/11/30 04:34:34;;;;;;;4.30;1.60;;;;;;;1.57;91.27;98076.16;5067021;28;20108;-59
2021/11/30 04:36:59;;;;;;;4.03;2.17;;;;;;;1.63;90.55;98055.97;5067518;28;20082;-58
2021/11/30 04:39:25;;;;;;;1.70;1.60;;;;;;;1.64;89.17;98063.59;5071343;28;20086;-55
2021/11/30 04:41:50;;;;;;;4.97;1.70;;;;;;;1.68;89.55;98055.19;5068212;28;20457;-55
2021/11/30 04:44:17;;;;;;;2.70;2.47;;;;;;;1.60;90.62;98046.72;5067196;28;20470;-61
2021/11/30 04:46:54;;;;;;;3.10;2.73;;;;;;;1.58;93.12;98050.91;5049090;28;20379;-54
2021/11/30 04:51:57;;;;;;;2.00;1.83;;;;;;;1.57;93.94;98049.19;5066285;28;20478;-58
2021/11/30 04:54:23;;;;;;;2.23;1.87;;;;;;;1.51;96.25;98059.28;5065648;28;20032;-59
2021/11/30 04:56:49;;;;;;;3.27;2.87;;;;;;;1.53;97.29;98060.13;5069000;28;20032;-59
2021/11/30 04:59:17;;;;;;;2.33;2.10;;;;;;;1.57;95.91;98079.50;5071091;28;20044;-59
2021/11/30 05:01:42;;;;;;;3.73;2.47;;;;;;;1.56;95.90;98057.63;5065813;28;20040;-54
2021/11/30 05:04:08;;;;;;;2.90;2.63;;;;;;;1.61;95.31;98029.88;5066358;28;20387;-58
2021/11/30 05:06:33;;;;;;;3.17;2.60;;;;;;;1.60;95.20;98048.41;5069966;28;20198;-54
2021/11/30 05:09:02;;;;;;;4.83;2.43;;;;;;;1.63;96.11;98053.47;5071918;28;20135;-55
2021/11/30 05:11:27;;;;;;;3.20;2.37;;;;;;;1.62;95.68;98052.59;5064677;28;20060;-56
2021/11/30 05:13:53;;;;;;;3.27;2.60;;;;;;;1.63;93.92;98050.94;5066896;28;20048;-58
2021/11/30 05:16:18;;;;;;;4.97;2.60;;;;;;;1.74;91.05;98065.31;5069645;28;20115;-57
2021/11/30 05:18:44;;;;;;;3.80;1.80;;;;;;;1.81;90.28;98056.97;5070424;28;20040;-59
2021/11/30 05:21:09;;;;;;;3.17;2.87;;;;;;;1.82;89.80;98042.66;5066800;28;20159;-58
2021/11/30 05:23:35;;;;;;;2.33;2.13;;;;;;;1.83;90.04;98065.38;5066712;28;20413;-54
2021/11/30 05:26:04;;;;;;;2.63;2.17;;;;;;;1.93;88.10;98055.34;5063907;28;20060;-57
2021/11/30 05:28:31;;;;;;;2.87;1.93;;;;;;;2.03;87.38;98065.53;5065867;28;20059;-56
2021/11/30 05:30:57;;;;;;;4.07;2.53;;;;;;;2.07;88.55;98046.16;5062078;28;20125;-57
2021/11/30 05:33:22;;;;;;;2.53;2.13;;;;;;;2.12;90.73;98050.38;5064065;28;20135;-56
2021/11/30 05:35:48;;;;;;;3.37;2.47;;;;;;;2.00;93.92;98054.53;5069465;28;20040;-57
2021/11/30 05:38:13;;;;;;;4.50;2.80;;;;;;;1.99;96.26;98053.69;5070230;28;20044;-57
2021/11/30 05:40:42;;;;;;;4.40;2.37;;;;;;;1.91;98.58;98075.53;5064202;28;20390;-58
2021/11/30 05:43:09;;;;;;;3.70;2.87;;;;;;;1.89;99.98;98043.50;5050284;28;20071;-57
2021/11/30 05:45:34;;;;;;;3.53;2.70;;;;;;;1.80;100.00;98055.25;5069576;28;20032;-56
2021/11/30 05:48:00;;;;;;;6.17;3.40;;;;;;;1.86;100.00;98068.78;5069112;28;20093;-57
2021/11/30 05:50:26;;;;;;;3.03;2.30;;;;;;;1.83;100.00;98064.53;5064741;28;20127;-57
2021/11/30 05:52:51;;;;;;;2.87;2.60;;;;;;;1.88;100.00;98067.09;5068767;28;20029;-57
2021/11/30 05:55:17;;;;;;;3.10;2.80;;;;;;;1.75;100.00;98074.59;5067426;28;20471;-57
2021/11/30 05:57:43;;;;;;;4.00;2.77;;;;;;;1.74;100.00;98067.84;5068801;28;20040;-55
2021/11/30 06:00:12;;;;;;;4.57;2.70;;;;;;;1.79;100.00;98053.56;5067724;28;20411;-55
2021/11/30 06:05:23;;;;;;;4.40;2.17;;;;;;;1.83;100.00;98052.75;5069869;28;20072;-56
2021/11/30 06:07:49;;;;;;;4.10;2.60;;;;;;;1.82;100.00;98088.94;5070856;28;20037;-56
2021/11/30 06:10:14;;;;;;;2.90;2.23;;;;;;;1.95;100.00;98046.94;5065773;28;20036;-54
2021/11/30 06:12:40;;;;;;;5.87;2.57;;;;;;;1.92;100.00;98066.28;5073309;28;20094;-55
2021/11/30 06:15:06;;;;;;;3.27;1.93;;;;;;;1.94;100.00;98037.66;5071227;28;20036;-53
2021/11/30 06:17:32;;;;;;;3.07;2.70;;;;;;;1.97;100.00;98049.47;5069483;28;20461;-56
2021/11/30 06:19:57;;;;;;;3.03;2.57;;;;;;;1.89;100.00;98051.09;5067339;28;20090;-52
2021/11/30 06:22:23;;;;;;;3.60;2.40;;;;;;;1.89;100.00;98041.84;5072445;28;20383;-55
2021/11/30 06:24:48;;;;;;;3.10;2.50;;;;;;;1.97;100.00;98050.31;5071835;28;20033;-57
2021/11/30 06:27:13;;;;;;;2.60;2.00;;;;;;;2.04;100.00;98036.00;5066239;28;20097;-54
2021/11/30 06:29:39;;;;;;;3.73;2.90;;;;;;;2.00;100.00;98052.84;5068434;28;20048;-53
2021/11/30 06:32:05;;;;;;;3.40;2.10;;;;;;;2.03;100.00;98055.41;5072573;28;20106;-57
2021/11/30 06:34:30;;;;;;;5.77;2.67;;;;;;;1.99;100.00;98055.38;5073669;28;20448;-56
2021/11/30 06:36:56;;;;;;;4.73;2.73;;;;;;;1.94;100.00;98068.00;5067477;28;20048;-57
2021/11/30 06:39:21;;;;;;;2.30;2.10;;;;;;;2.03;100.00;98062.13;5069448;28;20036;-54
2021/11/30 06:41:47;;;;;;;3.20;2.40;;;;;;;2.11;100.00;98078.19;5071780;28;20029;-52
2021/11/30 06:44:12;;;;;;;2.53;2.20;;;;;;;2.12;100.00;98072.31;5072877;28;20059;-56
2021/11/30 06:46:37;;;;;;;2.43;2.07;;;;;;;2.12;100.00;98087.47;5067777;28;20110;-56
2021/11/30 06:49:03;;;;;;;4.67;3.00;;;;;;;2.23;100.00;98080.78;5072284;28;20044;-56
2021/11/30 06:51:28;;;;;;;2.47;2.27;;;;;;;2.22;100.00;98100.16;5073942;28;20135;-56
2021/11/30 06:53:54;;;;;;;1.90;1.70;;;;;;;2.30;100.00;98090.94;5074644;28;20045;-55
2021/11/30 06:56:19;;;;;;;3.00;2.70;;;;;;;2.38;100.00;98087.59;5067550;28;20041;-52
2021/11/30 06:58:44;;;;;;;1.90;1.73;;;;;;;2.42;100.00;98085.06;5069937;28;20062;-58
2021/11/30 07:01:12;;;;;;;2.37;2.17;;;;;;;2.47;100.00;98090.16;5071654;28;20471;-59
2021/11/30 07:03:40;;;;;;;2.63;2.00;;;;;;;2.50;100.00;98085.97;5070135;28;20060;-57
2021/11/30 07:06:18;;;;;;;4.37;2.63;;;;;;;2.51;100.00;98090.16;5064878;28;20505;-57
2021/11/30 07:08:54;;;;;;;2.03;1.70;;;;;;;2.50;100.00;98082.59;5067628;28;20049;-53
2021/11/30 07:11:37;;;;;;;2.20;2.00;;;;;;;2.55;100.00;98085.97;5069742;28;20083;-57
2021/11/30 07:14:03;;;;;;;2.40;2.20;;;;;;;2.56;100.00;98083.44;5066183;28;20067;-57
2021/11/30 07:16:29;;;;;;;3.50;2.20;;;;;;;2.61;100.00;98089.38;5065117;28;20072;-55
2021/11/30 07:18:54;;;;;;;2.50;2.10;;;;;;;2.58;100.00;98086.84;5068000;28;20067;-59
2021/11/30 07:21:20;;;;;;;3.37;1.93;;;;;;;2.62;100.00;98085.16;5068686;28;20116;-55
2021/11/30 07:23:45;;;;;;;1.93;1.53;;;;;;;2.71;99.96;98100.38;5065260;28;20052;-57
2021/11/30 07:26:11;;;;;;;1.60;1.50;;;;;;;2.75;97.78;98061.59;5066865;28;20124;-57
2021/11/30 07:28:36;;;;;;;1.50;1.37;;;;;;;2.81;97.60;98073.41;5069544;28;20094;-55
2021/11/30 07:31:11;;;;;;;3.40;1.83;;;;;;;2.89;96.65;98064.97;5067563;28;20079;-54
2021/11/30 07:33:43;;;;;;;2.53;1.70;;;;;;;3.02;96.11;98064.16;5065371;28;20482;-56
2021/11/30 07:36:11;;;;;;;2.23;1.80;;;;;;;3.02;96.25;98086.09;5067695;28;20060;-54
2021/11/30 07:38:41;;;;;;;1.90;1.50;;;;;;;3.10;94.70;98059.09;5069919;28;20134;-58
2021/11/30 07:41:07;;;;;;;2.47;1.80;;;;;;;3.20;93.26;98055.75;5066728;28;20029;-59
2021/11/30 07:43:34;;;;;;;1.63;1.33;;;;;;;3.21;91.56;98044.78;5065288;28;20071;-54
2021/11/30 07:45:59;;;;;;;1.50;1.40;;;;;;;3.36;90.49;98042.25;5067107;28;20033;-56
2021/11/30 07:48:27;;;;;;;1.67;1.57;;;;;;;3.42;89.62;98038.88;5069681;28;20123;-57
2021/11/30 07:50:54;;;;;;;1.60;1.40;;;;;;;3.40;89.60;98035.47;5066087;28;20516;-60
2021/11/30 07:53:20;;;;;;;3.17;1.60;;;;;;;3.63;89.20;98051.53;5064814;28;20397;-59
2021/11/30 07:55:45;;;;;;;3.73;1.60;;;;;;;3.69;88.49;98039.69;5065004;28;20040;-60
2021/11/30 07:58:11;;;;;;;2.33;1.60;;;;;;;3.78;88.21;98051.50;5064998;28;20028;-55
2021/11/30 08:00:37;;;;;;;1.63;1.30;;;;;;;3.83;87.72;98051.50;5068801;28;20470;-58
2021/11/30 08:03:03;;;;;;;2.07;1.40;;;;;;;3.90;87.67;98055.72;5065797;28;20060;-57
2021/11/30 08:05:29;;;;;;;0.90;0.90;;;;;;;3.91;87.48;98065.00;5065082;28;20044;-53
2021/11/30 08:07:55;;;;;;;1.67;1.23;;;;;;;4.06;87.01;98060.75;5064547;28;20060;-58
2021/11/30 08:10:23;;;;;;;2.00;0.97;;;;;;;4.11;84.63;98065.81;5068434;28;20055;-57
2021/11/30 08:12:49;;;;;;;1.27;1.17;;;;;;;4.09;82.66;98037.91;5068479;28;20461;-61
2021/11/30 08:15:16;;;;;;;1.67;1.03;;;;;;;4.12;83.48;98055.66;5064685;28;20376;-57
2021/11/30 08:17:41;;;;;;;1.33;0.90;;;;;;;4.10;84.04;98032.00;5064675;28;20044;-60
2021/11/30 08:20:08;;;;;;;4.20;1.37;;;;;;;4.22;84.16;98051.41;5068276;28;20040;-61
2021/11/30 08:22:34;;;;;;;1.13;1.13;;;;;;;4.14;82.06;98037.91;5071499;28;20218;-60
2021/11/30 08:25:00;;;;;;;1.00;0.80;;;;;;;4.16;82.39;98037.91;5065056;28;20056;-58
2021/11/30 08:27:25;;;;;;;0.83;0.83;;;;;;;4.33;81.63;98046.31;5065328;28;20051;-59
2021/11/30 08:29:51;;;;;;;1.40;1.00;;;;;;;4.24;81.00;98037.03;5067966;28;20114;-57
2021/11/30 08:32:22;;;;;;;2.07;0.73;;;;;;;4.34;79.70;98038.66;5067816;28;20227;-59
2021/11/30 08:34:49;;;;;;;2.53;0.90;;;;;;;4.45;78.25;98039.47;5064494;28;20460;-58
2021/11/30 08:37:15;;;;;;;1.20;1.00;;;;;;;4.46;76.37;98042.84;5066297;28;20040;-59
2021/11/30 08:39:40;;;;;;;0.90;0.80;;;;;;;4.51;75.33;98044.50;5067676;28;20036;-61
2021/11/30 08:42:09;;;;;;;1.70;0.90;;;;;;;4.82;75.21;98029.13;5067424;28;20040;-58
2021/11/30 08:44:35;;;;;;;0.80;0.80;;;;;;;4.66;72.50;98052.91;5064568;28;20604;-59
2021/11/30 08:47:03;;;;;;;0.80;0.80;;;;;;;4.61;71.33;98032.63;5066742;28;20112;-59
2021/11/30 08:49:29;;;;;;;0.60;0.60;;;;;;;4.42;70.72;98042.00;5065453;28;20047;-58
2021/11/30 08:51:57;;;;;;;0.77;0.77;;;;;;;4.55;70.74;98051.25;5063538;28;20032;-58
2021/11/30 08:54:25;;;;;;;6.93;1.37;;;;;;;4.64;71.37;98052.91;5067602;28;20067;-59
2021/11/30 08:56:51;;;;;;;0.60;0.60;;;;;;;4.19;72.77;98045.50;5046919;28;20039;-58
2021/11/30 08:59:16;;;;;;;2.00;1.33;;;;;;;4.14;73.50;98042.97;5064827;28;20040;-59
2021/11/30 09:01:42;;;;;;;1.20;0.90;;;;;;;4.09;74.37;98065.81;5062860;28;20437;-56
2021/11/30 09:04:09;;;;;;;3.33;0.93;;;;;;;4.10;74.22;98038.75;5068167;28;20045;-60
2021/11/30 09:06:34;;;;;;;0.90;0.90;;;;;;;4.11;75.04;98043.84;5071252;28;20032;-59
2021/11/30 09:09:00;;;;;;;4.33;1.07;;;;;;;4.26;76.13;98040.38;5065001;28;20160;-58
2021/11/30 09:11:26;;;;;;;0.53;0.53;;;;;;;4.30;75.43;98037.00;5061715;28;20064;-58
2021/11/30 09:13:52;;;;;;;2.47;0.73;;;;;;;4.37;74.07;98037.81;5067354;28;20033;-58
2021/11/30 09:16:18;;;;;;;0.70;0.70;;;;;;;4.51;71.95;98047.06;5067225;28;20390;-57
2021/11/30 09:18:44;;;;;;;3.47;0.90;;;;;;;4.67;71.45;98039.38;5062633;28;20045;-58
2021/11/30 09:21:09;;;;;;;0.70;0.70;;;;;;;4.76;68.54;98032.53;5044245;28;20033;-57
2021/11/30 09:23:35;;;;;;;0.70;0.70;;;;;;;4.64;69.13;98035.13;5067220;28;20041;-55
2021/11/30 09:26:01;;;;;;;0.77;0.73;;;;;;;4.60;69.44;98033.47;5066999;28;20110;-58
2021/11/30 09:28:27;;;;;;;0.60;0.60;;;;;;;4.53;68.18;98016.59;5062597;28;20116;-57
2021/11/30 09:30:53;;;;;;;0.93;0.83;;;;;;;4.60;67.36;98011.47;5064075;28;20543;-59
2021/11/30 09:33:19;;;;;;;0.77;0.70;;;;;;;4.78;66.28;98030.00;5070658;28;20086;-57
2021/11/30 09:35:44;;;;;;;0.70;0.70;;;;;;;5.07;64.49;98021.34;5071864;28;20052;-58
2021/11/30 09:38:10;;;;;;;1.13;0.70;;;;;;;4.90;61.51;98033.31;5067493;28;20374;-57
2021/11/30 09:40:37;;;;;;;0.70;0.70;;;;;;;4.77;59.67;98024.06;5068110;28;20111;-59
2021/11/30 09:43:03;;;;;;;0.50;0.50;;;;;;;4.78;59.81;98023.22;5071888;28;20043;-59
2021/11/30 09:45:34;;;;;;;0.90;0.80;;;;;;;4.82;60.64;98011.34;5070321;28;20402;-60
2021/11/30 09:47:59;;;;;;;1.03;0.93;;;;;;;4.77;59.60;98003.75;5066006;28;20036;-57
2021/11/30 09:50:25;;;;;;;2.13;1.07;;;;;;;4.82;59.00;98008.81;5068595;28;20040;-58
2021/11/30 09:52:54;;;;;;;0.90;0.90;;;;;;;4.70;59.08;97997.03;5069300;28;20040;-58
2021/11/30 09:55:22;;;;;;;0.70;0.70;;;;;;;4.82;60.92;97970.72;5067049;28;20040;-58
2021/11/30 09:57:50;;;;;;;1.57;0.70;;;;;;;4.77;58.98;97980.91;5071540;28;20028;-58
2021/11/30 10:00:17;;;;;;;1.53;0.70;;;;;;;4.69;58.56;97958.97;5073355;28;20044;-59
2021/11/30 10:02:42;;;;;;;1.17;0.67;;;;;;;4.50;57.97;97976.81;5059211;28;20111;-60
2021/11/30 10:05:08;;;;;;;0.40;0.40;;;;;;;4.55;57.26;97964.13;5048111;28;20045;-57
2021/11/30 10:07:50;;;;;;;0.80;0.70;;;;;;;4.56;56.62;97955.66;5052875;28;20075;-59
2021/11/30 10:10:17;;;;;;;1.93;0.70;;;;;;;4.56;56.93;97951.44;5050690;28;20049;-59
2021/11/30 10:12:44;;;;;;;1.10;1.07;;;;;;;4.77;57.79;97942.81;5046805;28;20053;-61
2021/11/30 10:15:12;;;;;;;0.87;0.87;;;;;;;4.90;56.48;97935.94;5049077;28;20049;-59
2021/11/30 10:17:38;;;;;;;1.97;1.07;;;;;;;4.76;55.16;97950.44;5053168;28;20041;-59
2021/11/30 10:20:10;;;;;;;1.17;0.70;;;;;;;4.79;55.51;97947.91;5052210;28;20102;-60
2021/11/30 10:22:53;;;;;;;1.33;0.60;;;;;;;4.82;55.39;97930.09;5048403;28;20080;-57
2021/11/30 10:25:18;;;;;;;0.53;0.53;;;;;;;4.68;54.86;97932.72;5046886;28;20098;-59
2021/11/30 10:28:05;;;;;;;1.47;0.70;;;;;;;4.68;55.71;97919.19;5052372;28;20061;-58
2021/11/30 10:30:33;;;;;;;0.63;0.63;;;;;;;4.81;56.69;97918.25;5049599;28;20069;-60
2021/11/30 10:33:25;;;;;;;1.00;0.80;;;;;;;4.90;55.48;97902.94;5049137;28;20049;-60
2021/11/30 10:35:54;;;;;;;2.17;1.37;;;;;;;5.10;54.92;97905.28;5042598;28;20044;-63
2021/11/30 10:38:22;;;;;;;0.70;0.70;;;;;;;5.06;54.69;97892.63;5054038;28;20044;-59
2021/11/30 10:40:48;;;;;;;0.77;0.77;;;;;;;5.02;54.29;97885.91;5047399;28;20045;-58
2021/11/30 10:43:15;;;;;;;1.90;1.17;;;;;;;4.93;55.13;97877.50;5043127;28;20483;-58
2021/11/30 10:45:45;;;;;;;2.10;0.70;;;;;;;5.02;54.65;97868.13;5051125;28;20963;-60
2021/11/30 10:48:15;;;;;;;1.63;0.87;;;;;;;5.02;54.98;97865.56;5050485;28;20049;-60
2021/11/30 10:50:41;;;;;;;1.87;0.90;;;;;;;4.90;55.37;97872.47;5049447;28;20037;-60
2021/11/30 10:53:23;;;;;;;1.47;1.03;;;;;;;4.88;56.40;97867.38;5049559;28;20033;-59
2021/11/30 10:55:50;;;;;;;1.00;1.00;;;;;;;4.83;56.96;97870.84;5050384;28;20037;-59
2021/11/30 10:58:18;;;;;;;1.17;0.70;;;;;;;5.02;55.72;97854.56;5049131;28;20041;-59
2021/11/30 11:00:44;;;;;;;1.43;1.10;;;;;;;4.96;56.33;97852.94;5043392;28;20055;-60
2021/11/30 11:03:17;;;;;;;0.60;0.60;;;;;;;4.95;55.63;97848.72;5061058;28;20060;-58
2021/11/30 11:08:47;;;;;;;0.70;0.50;;;;;;;4.93;55.41;97835.19;5068247;28;20082;-59
2021/11/30 11:11:19;;;;;;;1.70;0.70;;;;;;;4.93;55.98;97836.88;5070368;28;20052;-60
2021/11/30 11:13:44;;;;;;;0.90;0.67;;;;;;;5.03;55.05;97829.16;5070931;28;20059;-60
2021/11/30 11:16:22;;;;;;;2.03;0.80;;;;;;;4.90;55.91;97824.22;5072194;28;20033;-59
2021/11/30 11:18:50;;;;;;;3.93;1.17;;;;;;;4.90;56.25;97830.13;5066526;28;20055;-60
2021/11/30 11:21:25;;;;;;;1.03;0.70;;;;;;;4.97;55.21;97829.22;5067324;28;20058;-61
2021/11/30 11:24:07;;;;;;;0.55;0.50;;;;;;;4.82;55.60;97819.22;5071774;28;20071;-59
2021/11/30 11:26:34;;;;;;;0.70;0.60;;;;;;;4.86;56.44;97817.47;5049320;28;20040;-60
2021/11/30 11:29:05;;;;;;;0.60;0.60;;;;;;;4.90;56.52;97811.50;5069507;28;20068;-60
2021/11/30 11:31:31;;;;;;;0.40;0.40;;;;;;;4.97;56.17;97808.03;5068340;28;20040;-60
2021/11/30 11:34:01;;;;;;;0.67;0.67;;;;;;;5.05;55.81;97803.72;5073567;28;20036;-60
2021/11/30 11:36:27;;;;;;;2.73;1.00;;;;;;;4.87;55.38;97794.63;5069747;28;20068;-62
2021/11/30 11:38:53;;;;;;;2.00;1.23;;;;;;;5.05;56.65;97791.03;5066460;28;20123;-62
2021/11/30 11:41:19;;;;;;;1.57;0.90;;;;;;;4.99;56.07;97791.09;5072700;28;20063;-60
2021/11/30 11:43:45;;;;;;;1.63;0.90;;;;;;;4.79;56.86;97782.84;5070900;28;20029;-61
2021/11/30 11:46:14;;;;;;;0.40;0.40;;;;;;;4.86;57.36;97766.69;5068950;28;20103;-60
2021/11/30 11:48:40;;;;;;;2.43;0.80;;;;;;;4.83;58.03;97765.03;5062595;28;20492;-61
2021/11/30 11:51:08;;;;;;;2.47;0.93;;;;;;;4.98;58.09;97762.31;5072211;28;20119;-60
2021/11/30 11:53:39;;;;;;;1.10;1.00;;;;;;;4.97;57.97;97762.34;5070567;28;20028;-62